Terminal Aerodrome Forecast
Issued by NWS

Home | Current Version | Previous Version | Text Only | Print | Product List | Glossary On
Versions: 1 2 3 4 5 6 7 8 9 10 11 12 13 14 15
000
FTUS43 KDTX 182320
TAFMBS
TAF
KMBS 182320Z 1900/1924 06016G24KT P6SM SKC
     FM190100 06010KT P6SM FEW250
     FM191500 09014KT P6SM BKN120
     FM191800 09015KT P6SM BKN070
     FM192300 10015KT 5SM -RA OVC030=

USA.gov is the U.S. government's official web portal to all federal, state and local government web resources and services.